Aviation Digital Data Service (ADDS)

Output produced by METARs form (1443 UTC 28 August 2015)
found at http://aviationweather.gov/adds/metars/
 
KPOU 281134Z 2812/2912 00000KT P6SM SKC 
     FM281400 34005KT P6SM SCT050 
     FM290000 VRB03KT P6SM SKC 
     FM290800 00000KT P6SM MIFG SKC